sensor_id;sensor_type;location;lat;lon;timestamp;P1;durP1;ratioP1;P2;durP2;ratioP2
16792;SDS011;8513;42.662;23.350;2024-03-02T00:02:10;23.57;;;18.87;;
16792;SDS011;8513;42.662;23.350;2024-03-02T00:04:36;23.20;;;17.90;;
16792;SDS011;8513;42.662;23.350;2024-03-02T00:07:02;21.17;;;17.40;;
16792;SDS011;8513;42.662;23.350;2024-03-02T00:09:28;23.57;;;17.83;;
16792;SDS011;8513;42.662;23.350;2024-03-02T00:11:54;25.03;;;17.97;;
16792;SDS011;8513;42.662;23.350;2024-03-02T00:14:20;23.70;;;19.07;;
16792;SDS011;8513;42.662;23.350;2024-03-02T00:16:45;22.80;;;17.93;;
16792;SDS011;8513;42.662;23.350;2024-03-02T00:19:11;26.73;;;19.47;;
16792;SDS011;8513;42.662;23.350;2024-03-02T00:21:36;25.00;;;18.87;;
16792;SDS011;8513;42.662;23.350;2024-03-02T00:24:07;22.93;;;19.00;;
16792;SDS011;8513;42.662;23.350;2024-03-02T00:26:45;21.57;;;17.33;;
16792;SDS011;8513;42.662;23.350;2024-03-02T00:29:10;21.37;;;17.33;;
16792;SDS011;8513;42.662;23.350;2024-03-02T00:31:40;23.38;;;17.30;;
16792;SDS011;8513;42.662;23.350;2024-03-02T00:34:05;21.63;;;17.00;;
16792;SDS011;8513;42.662;23.350;2024-03-02T00:36:31;19.58;;;16.67;;
16792;SDS011;8513;42.662;23.350;2024-03-02T00:38:56;21.13;;;17.75;;
16792;SDS011;8513;42.662;23.350;2024-03-02T00:41:27;23.43;;;18.43;;
16792;SDS011;8513;42.662;23.350;2024-03-02T00:44:04;25.33;;;20.08;;
16792;SDS011;8513;42.662;23.350;2024-03-02T00:46:36;23.83;;;19.83;;
16792;SDS011;8513;42.662;23.350;2024-03-02T00:49:03;20.07;;;17.13;;
16792;SDS011;8513;42.662;23.350;2024-03-02T00:51:46;19.47;;;16.50;;
16792;SDS011;8513;42.662;23.350;2024-03-02T00:54:19;21.70;;;16.33;;
16792;SDS011;8513;42.662;23.350;2024-03-02T00:56:46;20.92;;;16.13;;
16792;SDS011;8513;42.662;23.350;2024-03-02T00:59:12;19.70;;;15.75;;
16792;SDS011;8513;42.662;23.350;2024-03-02T01:01:38;20.60;;;16.05;;
16792;SDS011;8513;42.662;23.350;2024-03-02T01:04:03;20.57;;;15.93;;
16792;SDS011;8513;42.662;23.350;2024-03-02T01:06:29;20.38;;;16.05;;
16792;SDS011;8513;42.662;23.350;2024-03-02T01:08:55;19.63;;;16.55;;
16792;SDS011;8513;42.662;23.350;2024-03-02T01:11:20;19.00;;;14.95;;
16792;SDS011;8513;42.662;23.350;2024-03-02T01:13:48;17.88;;;15.98;;
16792;SDS011;8513;42.662;23.350;2024-03-02T01:16:14;19.90;;;15.15;;
16792;SDS011;8513;42.662;23.350;2024-03-02T01:18:41;19.57;;;15.47;;
16792;SDS011;8513;42.662;23.350;2024-03-02T01:21:06;20.77;;;16.40;;
16792;SDS011;8513;42.662;23.350;2024-03-02T01:23:31;19.77;;;14.90;;
16792;SDS011;8513;42.662;23.350;2024-03-02T01:25:57;23.73;;;16.42;;
16792;SDS011;8513;42.662;23.350;2024-03-02T01:28:22;19.00;;;15.60;;
16792;SDS011;8513;42.662;23.350;2024-03-02T01:30:48;21.42;;;16.27;;
16792;SDS011;8513;42.662;23.350;2024-03-02T01:33:14;21.37;;;15.90;;
16792;SDS011;8513;42.662;23.350;2024-03-02T01:35:39;22.93;;;17.43;;
16792;SDS011;8513;42.662;23.350;2024-03-02T01:38:05;21.43;;;16.50;;
16792;SDS011;8513;42.662;23.350;2024-03-02T01:40:34;20.60;;;16.40;;
16792;SDS011;8513;42.662;23.350;2024-03-02T01:43:00;21.20;;;16.60;;
16792;SDS011;8513;42.662;23.350;2024-03-02T01:45:25;21.60;;;16.80;;
16792;SDS011;8513;42.662;23.350;2024-03-02T01:47:51;21.63;;;16.37;;
16792;SDS011;8513;42.662;23.350;2024-03-02T01:50:32;18.98;;;15.82;;
16792;SDS011;8513;42.662;23.350;2024-03-02T01:52:58;20.27;;;15.53;;
16792;SDS011;8513;42.662;23.350;2024-03-02T01:55:25;21.08;;;16.02;;
16792;SDS011;8513;42.662;23.350;2024-03-02T01:57:51;19.33;;;15.68;;
16792;SDS011;8513;42.662;23.350;2024-03-02T02:00:17;22.75;;;16.05;;
16792;SDS011;8513;42.662;23.350;2024-03-02T02:02:44;19.25;;;16.00;;
16792;SDS011;8513;42.662;23.350;2024-03-02T02:05:09;20.92;;;16.42;;
16792;SDS011;8513;42.662;23.350;2024-03-02T02:07:35;21.98;;;16.45;;
16792;SDS011;8513;42.662;23.350;2024-03-02T02:10:00;23.02;;;18.60;;
16792;SDS011;8513;42.662;23.350;2024-03-02T02:12:26;25.42;;;18.83;;
16792;SDS011;8513;42.662;23.350;2024-03-02T02:14:51;26.67;;;20.27;;
16792;SDS011;8513;42.662;23.350;2024-03-02T02:17:19;23.95;;;19.25;;
16792;SDS011;8513;42.662;23.350;2024-03-02T02:19:44;25.48;;;20.80;;
16792;SDS011;8513;42.662;23.350;2024-03-02T02:22:10;27.27;;;21.95;;
16792;SDS011;8513;42.662;23.350;2024-03-02T02:24:39;26.83;;;21.33;;
16792;SDS011;8513;42.662;23.350;2024-03-02T02:27:05;26.63;;;20.52;;
16792;SDS011;8513;42.662;23.350;2024-03-02T02:29:30;27.83;;;21.03;;
16792;SDS011;8513;42.662;23.350;2024-03-02T02:31:56;26.90;;;20.07;;
16792;SDS011;8513;42.662;23.350;2024-03-02T02:34:21;26.53;;;20.60;;
16792;SDS011;8513;42.662;23.350;2024-03-02T02:36:46;27.33;;;19.93;;
16792;SDS011;8513;42.662;23.350;2024-03-02T02:39:13;27.52;;;19.45;;
16792;SDS011;8513;42.662;23.350;2024-03-02T02:41:42;27.20;;;20.67;;
16792;SDS011;8513;42.662;23.350;2024-03-02T02:44:07;27.97;;;22.23;;
16792;SDS011;8513;42.662;23.350;2024-03-02T02:46:33;33.30;;;22.13;;
16792;SDS011;8513;42.662;23.350;2024-03-02T02:48:58;27.40;;;20.73;;
16792;SDS011;8513;42.662;23.350;2024-03-02T02:51:24;26.17;;;21.13;;
16792;SDS011;8513;42.662;23.350;2024-03-02T02:53:50;25.58;;;20.98;;
16792;SDS011;8513;42.662;23.350;2024-03-02T02:56:16;26.60;;;21.73;;
16792;SDS011;8513;42.662;23.350;2024-03-02T02:58:42;23.77;;;20.30;;
16792;SDS011;8513;42.662;23.350;2024-03-02T03:01:07;26.75;;;21.35;;
16792;SDS011;8513;42.662;23.350;2024-03-02T03:03:33;25.50;;;20.30;;
16792;SDS011;8513;42.662;23.350;2024-03-02T03:05:59;27.57;;;21.60;;
16792;SDS011;8513;42.662;23.350;2024-03-02T03:08:24;26.45;;;20.60;;
16792;SDS011;8513;42.662;23.350;2024-03-02T03:10:49;26.60;;;21.23;;
16792;SDS011;8513;42.662;23.350;2024-03-02T03:13:15;25.37;;;21.93;;
16792;SDS011;8513;42.662;23.350;2024-03-02T03:15:40;25.63;;;21.03;;
16792;SDS011;8513;42.662;23.350;2024-03-02T03:18:06;25.37;;;19.40;;
16792;SDS011;8513;42.662;23.350;2024-03-02T03:20:32;26.87;;;20.93;;
16792;SDS011;8513;42.662;23.350;2024-03-02T03:22:59;30.02;;;22.67;;
16792;SDS011;8513;42.662;23.350;2024-03-02T03:25:24;26.48;;;21.65;;
16792;SDS011;8513;42.662;23.350;2024-03-02T03:27:50;27.40;;;21.97;;
16792;SDS011;8513;42.662;23.350;2024-03-02T03:30:17;28.73;;;22.73;;
16792;SDS011;8513;42.662;23.350;2024-03-02T03:32:43;29.00;;;22.23;;
16792;SDS011;8513;42.662;23.350;2024-03-02T03:35:08;31.03;;;23.80;;
16792;SDS011;8513;42.662;23.350;2024-03-02T03:37:34;31.90;;;23.73;;
16792;SDS011;8513;42.662;23.350;2024-03-02T03:40:00;27.85;;;23.00;;
16792;SDS011;8513;42.662;23.350;2024-03-02T03:42:26;30.97;;;23.63;;
16792;SDS011;8513;42.662;23.350;2024-03-02T03:44:52;29.17;;;22.37;;
16792;SDS011;8513;42.662;23.350;2024-03-02T03:47:17;27.33;;;21.70;;
16792;SDS011;8513;42.662;23.350;2024-03-02T03:49:42;29.07;;;22.20;;
16792;SDS011;8513;42.662;23.350;2024-03-02T03:52:08;33.10;;;23.27;;
16792;SDS011;8513;42.662;23.350;2024-03-02T03:54:33;26.77;;;20.20;;
16792;SDS011;8513;42.662;23.350;2024-03-02T03:56:59;28.87;;;21.60;;
16792;SDS011;8513;42.662;23.350;2024-03-02T03:59:24;32.30;;;21.73;;
16792;SDS011;8513;42.662;23.350;2024-03-02T04:01:49;28.27;;;22.33;;
16792;SDS011;8513;42.662;23.350;2024-03-02T04:04:15;29.20;;;21.37;;
16792;SDS011;8513;42.662;23.350;2024-03-02T04:06:40;27.57;;;23.23;;
16792;SDS011;8513;42.662;23.350;2024-03-02T04:09:06;27.60;;;21.90;;
16792;SDS011;8513;42.662;23.350;2024-03-02T04:11:32;28.55;;;23.98;;
16792;SDS011;8513;42.662;23.350;2024-03-02T04:13:57;28.85;;;22.88;;
16792;SDS011;8513;42.662;23.350;2024-03-02T04:16:23;30.85;;;23.85;;
16792;SDS011;8513;42.662;23.350;2024-03-02T04:18:48;30.23;;;23.20;;
16792;SDS011;8513;42.662;23.350;2024-03-02T04:21:13;29.60;;;23.20;;
16792;SDS011;8513;42.662;23.350;2024-03-02T04:23:39;28.23;;;23.08;;
16792;SDS011;8513;42.662;23.350;2024-03-02T04:26:04;29.77;;;22.73;;
16792;SDS011;8513;42.662;23.350;2024-03-02T04:28:29;31.47;;;25.50;;
16792;SDS011;8513;42.662;23.350;2024-03-02T04:30:55;32.85;;;24.42;;
16792;SDS011;8513;42.662;23.350;2024-03-02T04:33:20;28.87;;;22.67;;
16792;SDS011;8513;42.662;23.350;2024-03-02T04:35:45;29.55;;;23.35;;
16792;SDS011;8513;42.662;23.350;2024-03-02T04:38:11;27.77;;;22.33;;
16792;SDS011;8513;42.662;23.350;2024-03-02T04:40:37;28.98;;;22.92;;
16792;SDS011;8513;42.662;23.350;2024-03-02T04:43:02;33.90;;;24.80;;
16792;SDS011;8513;42.662;23.350;2024-03-02T04:45:28;30.50;;;23.40;;
16792;SDS011;8513;42.662;23.350;2024-03-02T04:47:54;30.63;;;23.65;;
16792;SDS011;8513;42.662;23.350;2024-03-02T04:50:19;32.00;;;23.80;;
16792;SDS011;8513;42.662;23.350;2024-03-02T04:52:45;33.70;;;23.83;;
16792;SDS011;8513;42.662;23.350;2024-03-02T04:55:10;30.90;;;24.13;;
16792;SDS011;8513;42.662;23.350;2024-03-02T04:57:41;32.30;;;25.17;;
16792;SDS011;8513;42.662;23.350;2024-03-02T05:00:07;33.97;;;25.93;;
16792;SDS011;8513;42.662;23.350;2024-03-02T05:02:34;32.90;;;24.97;;
16792;SDS011;8513;42.662;23.350;2024-03-02T05:04:59;34.33;;;25.00;;
16792;SDS011;8513;42.662;23.350;2024-03-02T05:07:25;39.83;;;27.90;;
16792;SDS011;8513;42.662;23.350;2024-03-02T05:09:50;37.10;;;30.07;;
16792;SDS011;8513;42.662;23.350;2024-03-02T05:12:15;37.63;;;26.30;;
16792;SDS011;8513;42.662;23.350;2024-03-02T05:14:59;35.53;;;27.20;;
16792;SDS011;8513;42.662;23.350;2024-03-02T05:17:25;36.83;;;28.10;;
16792;SDS011;8513;42.662;23.350;2024-03-02T05:19:50;36.80;;;29.02;;
16792;SDS011;8513;42.662;23.350;2024-03-02T05:22:15;36.43;;;28.53;;
16792;SDS011;8513;42.662;23.350;2024-03-02T05:24:41;37.87;;;28.37;;
16792;SDS011;8513;42.662;23.350;2024-03-02T05:27:07;40.07;;;27.67;;
16792;SDS011;8513;42.662;23.350;2024-03-02T05:29:32;39.50;;;28.13;;
16792;SDS011;8513;42.662;23.350;2024-03-02T05:31:58;42.60;;;29.35;;
16792;SDS011;8513;42.662;23.350;2024-03-02T05:34:23;38.85;;;27.58;;
16792;SDS011;8513;42.662;23.350;2024-03-02T05:36:49;34.30;;;26.80;;
16792;SDS011;8513;42.662;23.350;2024-03-02T05:39:14;38.77;;;28.37;;
16792;SDS011;8513;42.662;23.350;2024-03-02T05:41:40;35.23;;;27.00;;
16792;SDS011;8513;42.662;23.350;2024-03-02T05:44:06;35.73;;;27.27;;
16792;SDS011;8513;42.662;23.350;2024-03-02T05:46:31;38.87;;;27.43;;
16792;SDS011;8513;42.662;23.350;2024-03-02T05:48:58;36.25;;;27.35;;
16792;SDS011;8513;42.662;23.350;2024-03-02T05:51:26;40.08;;;30.23;;
16792;SDS011;8513;42.662;23.350;2024-03-02T05:53:51;36.83;;;28.30;;
16792;SDS011;8513;42.662;23.350;2024-03-02T05:56:17;39.13;;;27.73;;
16792;SDS011;8513;42.662;23.350;2024-03-02T05:58:42;37.53;;;27.27;;
16792;SDS011;8513;42.662;23.350;2024-03-02T06:01:34;38.67;;;30.63;;
16792;SDS011;8513;42.662;23.350;2024-03-02T06:03:59;35.33;;;28.88;;
16792;SDS011;8513;42.662;23.350;2024-03-02T06:06:27;38.67;;;30.30;;
16792;SDS011;8513;42.662;23.350;2024-03-02T06:08:53;40.92;;;31.58;;
16792;SDS011;8513;42.662;23.350;2024-03-02T06:11:19;35.40;;;26.30;;
16792;SDS011;8513;42.662;23.350;2024-03-02T06:13:44;36.07;;;25.10;;
16792;SDS011;8513;42.662;23.350;2024-03-02T06:16:10;35.87;;;25.63;;
16792;SDS011;8513;42.662;23.350;2024-03-02T06:18:35;31.73;;;23.40;;
16792;SDS011;8513;42.662;23.350;2024-03-02T06:21:01;36.37;;;27.77;;
16792;SDS011;8513;42.662;23.350;2024-03-02T06:23:26;36.03;;;25.17;;
16792;SDS011;8513;42.662;23.350;2024-03-02T06:25:52;34.42;;;24.58;;
16792;SDS011;8513;42.662;23.350;2024-03-02T06:28:18;34.63;;;23.30;;
16792;SDS011;8513;42.662;23.350;2024-03-02T06:30:43;30.73;;;22.47;;
16792;SDS011;8513;42.662;23.350;2024-03-02T06:33:09;31.90;;;22.50;;
16792;SDS011;8513;42.662;23.350;2024-03-02T06:35:34;28.53;;;21.80;;
16792;SDS011;8513;42.662;23.350;2024-03-02T06:38:00;29.77;;;22.80;;
16792;SDS011;8513;42.662;23.350;2024-03-02T06:40:26;31.80;;;22.90;;
16792;SDS011;8513;42.662;23.350;2024-03-02T06:42:52;29.58;;;21.23;;
16792;SDS011;8513;42.662;23.350;2024-03-02T06:45:17;29.97;;;22.33;;
16792;SDS011;8513;42.662;23.350;2024-03-02T06:47:42;31.87;;;21.77;;
16792;SDS011;8513;42.662;23.350;2024-03-02T06:50:08;28.97;;;21.83;;
16792;SDS011;8513;42.662;23.350;2024-03-02T06:52:34;29.20;;;21.20;;
16792;SDS011;8513;42.662;23.350;2024-03-02T06:55:00;27.20;;;20.70;;
16792;SDS011;8513;42.662;23.350;2024-03-02T06:57:25;29.73;;;21.50;;
16792;SDS011;8513;42.662;23.350;2024-03-02T06:59:51;31.53;;;21.80;;
16792;SDS011;8513;42.662;23.350;2024-03-02T07:02:19;30.23;;;23.87;;
16792;SDS011;8513;42.662;23.350;2024-03-02T07:04:45;32.07;;;23.37;;
16792;SDS011;8513;42.662;23.350;2024-03-02T07:07:10;32.93;;;22.67;;
16792;SDS011;8513;42.662;23.350;2024-03-02T07:09:36;32.70;;;23.27;;
16792;SDS011;8513;42.662;23.350;2024-03-02T07:12:01;32.43;;;23.20;;
16792;SDS011;8513;42.662;23.350;2024-03-02T07:14:27;30.07;;;22.30;;
16792;SDS011;8513;42.662;23.350;2024-03-02T07:17:12;33.67;;;24.80;;
16792;SDS011;8513;42.662;23.350;2024-03-02T07:19:38;30.73;;;22.30;;
16792;SDS011;8513;42.662;23.350;2024-03-02T07:22:07;30.97;;;22.37;;
16792;SDS011;8513;42.662;23.350;2024-03-02T07:24:41;35.20;;;23.83;;
16792;SDS011;8513;42.662;23.350;2024-03-02T07:27:07;31.90;;;23.17;;
16792;SDS011;8513;42.662;23.350;2024-03-02T07:29:37;32.87;;;23.70;;
16792;SDS011;8513;42.662;23.350;2024-03-02T07:32:05;33.83;;;23.03;;
16792;SDS011;8513;42.662;23.350;2024-03-02T07:34:32;33.77;;;23.80;;
16792;SDS011;8513;42.662;23.350;2024-03-02T07:36:57;34.63;;;24.83;;
16792;SDS011;8513;42.662;23.350;2024-03-02T07:39:22;39.00;;;26.03;;
16792;SDS011;8513;42.662;23.350;2024-03-02T07:41:48;38.47;;;26.77;;
16792;SDS011;8513;42.662;23.350;2024-03-02T07:44:14;38.30;;;25.73;;
16792;SDS011;8513;42.662;23.350;2024-03-02T07:46:43;41.08;;;27.00;;
16792;SDS011;8513;42.662;23.350;2024-03-02T07:49:09;36.67;;;25.73;;
16792;SDS011;8513;42.662;23.350;2024-03-02T07:51:35;34.73;;;24.93;;
16792;SDS011;8513;42.662;23.350;2024-03-02T07:54:01;37.07;;;26.10;;
16792;SDS011;8513;42.662;23.350;2024-03-02T07:56:26;41.17;;;26.53;;
16792;SDS011;8513;42.662;23.350;2024-03-02T07:58:52;42.37;;;27.03;;
16792;SDS011;8513;42.662;23.350;2024-03-02T08:01:18;40.67;;;25.23;;
16792;SDS011;8513;42.662;23.350;2024-03-02T08:03:43;38.17;;;25.60;;
16792;SDS011;8513;42.662;23.350;2024-03-02T08:06:16;38.43;;;24.53;;
16792;SDS011;8513;42.662;23.350;2024-03-02T08:08:42;34.87;;;24.80;;
16792;SDS011;8513;42.662;23.350;2024-03-02T08:11:07;35.30;;;24.73;;
16792;SDS011;8513;42.662;23.350;2024-03-02T08:13:33;37.90;;;24.97;;
16792;SDS011;8513;42.662;23.350;2024-03-02T08:15:58;37.83;;;25.97;;
16792;SDS011;8513;42.662;23.350;2024-03-02T08:18:24;34.30;;;23.07;;
16792;SDS011;8513;42.662;23.350;2024-03-02T08:20:49;34.70;;;24.17;;
16792;SDS011;8513;42.662;23.350;2024-03-02T08:23:15;32.07;;;23.03;;
16792;SDS011;8513;42.662;23.350;2024-03-02T08:25:41;34.77;;;23.80;;
16792;SDS011;8513;42.662;23.350;2024-03-02T08:28:07;35.13;;;23.10;;
16792;SDS011;8513;42.662;23.350;2024-03-02T08:30:32;31.80;;;23.43;;
16792;SDS011;8513;42.662;23.350;2024-03-02T08:32:58;36.40;;;24.07;;
16792;SDS011;8513;42.662;23.350;2024-03-02T08:35:23;35.05;;;23.73;;
16792;SDS011;8513;42.662;23.350;2024-03-02T08:37:48;34.43;;;24.43;;
16792;SDS011;8513;42.662;23.350;2024-03-02T08:40:14;32.87;;;22.10;;
16792;SDS011;8513;42.662;23.350;2024-03-02T08:42:40;30.37;;;22.40;;
16792;SDS011;8513;42.662;23.350;2024-03-02T08:45:06;33.00;;;23.65;;
16792;SDS011;8513;42.662;23.350;2024-03-02T08:47:32;34.70;;;23.03;;
16792;SDS011;8513;42.662;23.350;2024-03-02T08:49:59;33.08;;;22.83;;
16792;SDS011;8513;42.662;23.350;2024-03-02T08:52:25;29.83;;;22.08;;
16792;SDS011;8513;42.662;23.350;2024-03-02T08:54:50;29.93;;;22.73;;
16792;SDS011;8513;42.662;23.350;2024-03-02T08:57:15;29.30;;;21.65;;
16792;SDS011;8513;42.662;23.350;2024-03-02T08:59:41;32.13;;;21.17;;
16792;SDS011;8513;42.662;23.350;2024-03-02T09:02:07;33.47;;;22.33;;
16792;SDS011;8513;42.662;23.350;2024-03-02T09:04:32;29.57;;;20.33;;
16792;SDS011;8513;42.662;23.350;2024-03-02T09:06:58;28.70;;;21.48;;
16792;SDS011;8513;42.662;23.350;2024-03-02T09:09:23;28.65;;;20.88;;
16792;SDS011;8513;42.662;23.350;2024-03-02T09:11:48;28.52;;;20.10;;
16792;SDS011;8513;42.662;23.350;2024-03-02T09:14:14;27.75;;;20.75;;
16792;SDS011;8513;42.662;23.350;2024-03-02T09:16:40;26.20;;;21.83;;
16792;SDS011;8513;42.662;23.350;2024-03-02T09:19:05;28.02;;;22.63;;
16792;SDS011;8513;42.662;23.350;2024-03-02T09:21:31;27.67;;;22.05;;
16792;SDS011;8513;42.662;23.350;2024-03-02T09:23:56;30.13;;;22.88;;
16792;SDS011;8513;42.662;23.350;2024-03-02T09:26:22;29.50;;;22.25;;
16792;SDS011;8513;42.662;23.350;2024-03-02T09:28:49;31.35;;;22.83;;
16792;SDS011;8513;42.662;23.350;2024-03-02T09:31:15;31.42;;;23.05;;
16792;SDS011;8513;42.662;23.350;2024-03-02T09:33:41;27.02;;;20.63;;
16792;SDS011;8513;42.662;23.350;2024-03-02T09:36:10;25.67;;;20.33;;
16792;SDS011;8513;42.662;23.350;2024-03-02T09:38:41;24.25;;;17.85;;
16792;SDS011;8513;42.662;23.350;2024-03-02T09:41:07;24.20;;;19.15;;
16792;SDS011;8513;42.662;23.350;2024-03-02T09:43:33;29.85;;;22.50;;
16792;SDS011;8513;42.662;23.350;2024-03-02T09:45:58;32.10;;;23.83;;
16792;SDS011;8513;42.662;23.350;2024-03-02T09:48:24;29.50;;;22.98;;
16792;SDS011;8513;42.662;23.350;2024-03-02T09:50:49;28.30;;;22.02;;
16792;SDS011;8513;42.662;23.350;2024-03-02T09:53:14;32.60;;;22.08;;
16792;SDS011;8513;42.662;23.350;2024-03-02T09:55:42;29.13;;;21.85;;
16792;SDS011;8513;42.662;23.350;2024-03-02T09:58:11;31.40;;;23.10;;
16792;SDS011;8513;42.662;23.350;2024-03-02T10:00:37;30.37;;;22.10;;
16792;SDS011;8513;42.662;23.350;2024-03-02T10:03:02;29.67;;;24.07;;
16792;SDS011;8513;42.662;23.350;2024-03-02T10:05:30;31.63;;;23.40;;
16792;SDS011;8513;42.662;23.350;2024-03-02T10:07:59;30.35;;;22.63;;
16792;SDS011;8513;42.662;23.350;2024-03-02T10:10:34;33.70;;;23.80;;
16792;SDS011;8513;42.662;23.350;2024-03-02T10:13:07;33.78;;;24.00;;
16792;SDS011;8513;42.662;23.350;2024-03-02T10:15:34;34.10;;;23.45;;
16792;SDS011;8513;42.662;23.350;2024-03-02T10:18:00;31.57;;;23.93;;
16792;SDS011;8513;42.662;23.350;2024-03-02T10:20:25;34.55;;;23.85;;
16792;SDS011;8513;42.662;23.350;2024-03-02T10:22:55;32.17;;;23.42;;
16792;SDS011;8513;42.662;23.350;2024-03-02T10:25:34;34.10;;;22.48;;
16792;SDS011;8513;42.662;23.350;2024-03-02T10:28:00;31.77;;;22.67;;
16792;SDS011;8513;42.662;23.350;2024-03-02T10:30:26;29.83;;;22.85;;
16792;SDS011;8513;42.662;23.350;2024-03-02T10:32:55;31.15;;;22.08;;
16792;SDS011;8513;42.662;23.350;2024-03-02T10:35:21;28.05;;;21.85;;
16792;SDS011;8513;42.662;23.350;2024-03-02T10:37:51;30.00;;;21.53;;
16792;SDS011;8513;42.662;23.350;2024-03-02T10:40:17;30.58;;;22.25;;
16792;SDS011;8513;42.662;23.350;2024-03-02T10:42:46;28.85;;;22.08;;
16792;SDS011;8513;42.662;23.350;2024-03-02T10:45:12;30.15;;;22.00;;
16792;SDS011;8513;42.662;23.350;2024-03-02T10:47:41;28.33;;;21.33;;
16792;SDS011;8513;42.662;23.350;2024-03-02T10:50:07;30.27;;;21.50;;
16792;SDS011;8513;42.662;23.350;2024-03-02T10:52:39;28.42;;;20.88;;
16792;SDS011;8513;42.662;23.350;2024-03-02T10:55:11;29.90;;;21.87;;
16792;SDS011;8513;42.662;23.350;2024-03-02T11:00:19;29.67;;;22.30;;
16792;SDS011;8513;42.662;23.350;2024-03-02T11:02:50;29.92;;;22.25;;
16792;SDS011;8513;42.662;23.350;2024-03-02T11:07:57;28.75;;;20.80;;
16792;SDS011;8513;42.662;23.350;2024-03-02T11:10:34;31.35;;;21.20;;
16792;SDS011;8513;42.662;23.350;2024-03-02T11:13:02;25.60;;;18.98;;
16792;SDS011;8513;42.662;23.350;2024-03-02T11:15:33;24.77;;;18.63;;
16792;SDS011;8513;42.662;23.350;2024-03-02T11:18:00;25.95;;;18.00;;
16792;SDS011;8513;42.662;23.350;2024-03-02T11:20:29;24.55;;;18.05;;
16792;SDS011;8513;42.662;23.350;2024-03-02T11:22:55;22.05;;;16.85;;
16792;SDS011;8513;42.662;23.350;2024-03-02T11:25:27;24.10;;;17.05;;
16792;SDS011;8513;42.662;23.350;2024-03-02T11:35:25;23.80;;;18.42;;
16792;SDS011;8513;42.662;23.350;2024-03-02T11:37:51;25.70;;;19.25;;
16792;SDS011;8513;42.662;23.350;2024-03-02T11:40:21;25.40;;;19.38;;
16792;SDS011;8513;42.662;23.350;2024-03-02T11:42:47;26.35;;;20.42;;
16792;SDS011;8513;42.662;23.350;2024-03-02T11:45:16;26.65;;;20.83;;
16792;SDS011;8513;42.662;23.350;2024-03-02T11:47:46;26.75;;;21.27;;
16792;SDS011;8513;42.662;23.350;2024-03-02T11:50:15;25.98;;;19.00;;
16792;SDS011;8513;42.662;23.350;2024-03-02T11:52:40;25.30;;;18.33;;
16792;SDS011;8513;42.662;23.350;2024-03-02T11:55:07;23.63;;;17.20;;
16792;SDS011;8513;42.662;23.350;2024-03-02T11:57:34;24.30;;;17.50;;
16792;SDS011;8513;42.662;23.350;2024-03-02T12:00:00;22.70;;;18.05;;
16792;SDS011;8513;42.662;23.350;2024-03-02T12:02:28;23.73;;;17.95;;
16792;SDS011;8513;42.662;23.350;2024-03-02T12:04:54;20.80;;;17.08;;
16792;SDS011;8513;42.662;23.350;2024-03-02T12:07:20;25.92;;;18.48;;
16792;SDS011;8513;42.662;23.350;2024-03-02T12:09:47;19.67;;;16.20;;
16792;SDS011;8513;42.662;23.350;2024-03-02T12:12:12;19.00;;;15.93;;
16792;SDS011;8513;42.662;23.350;2024-03-02T12:14:49;18.35;;;15.95;;
16792;SDS011;8513;42.662;23.350;2024-03-02T12:17:16;18.92;;;15.32;;
16792;SDS011;8513;42.662;23.350;2024-03-02T12:19:42;20.88;;;16.13;;
16792;SDS011;8513;42.662;23.350;2024-03-02T12:22:07;19.42;;;15.75;;
16792;SDS011;8513;42.662;23.350;2024-03-02T12:24:32;17.77;;;15.23;;
16792;SDS011;8513;42.662;23.350;2024-03-02T12:26:58;19.27;;;15.60;;
16792;SDS011;8513;42.662;23.350;2024-03-02T12:29:24;19.92;;;15.30;;
16792;SDS011;8513;42.662;23.350;2024-03-02T12:31:52;17.20;;;14.30;;
16792;SDS011;8513;42.662;23.350;2024-03-02T12:34:18;17.98;;;15.35;;
16792;SDS011;8513;42.662;23.350;2024-03-02T12:36:45;16.25;;;13.65;;
16792;SDS011;8513;42.662;23.350;2024-03-02T12:39:14;19.17;;;14.77;;
16792;SDS011;8513;42.662;23.350;2024-03-02T12:41:40;19.33;;;15.70;;
16792;SDS011;8513;42.662;23.350;2024-03-02T12:44:06;18.73;;;15.55;;
16792;SDS011;8513;42.662;23.350;2024-03-02T12:46:32;16.88;;;14.50;;
16792;SDS011;8513;42.662;23.350;2024-03-02T12:49:05;17.92;;;14.68;;
16792;SDS011;8513;42.662;23.350;2024-03-02T12:51:36;18.25;;;14.68;;
16792;SDS011;8513;42.662;23.350;2024-03-02T12:54:02;17.95;;;15.57;;
16792;SDS011;8513;42.662;23.350;2024-03-02T12:56:30;18.48;;;14.90;;
16792;SDS011;8513;42.662;23.350;2024-03-02T12:58:56;19.25;;;14.95;;
16792;SDS011;8513;42.662;23.350;2024-03-02T13:01:21;15.85;;;14.13;;
16792;SDS011;8513;42.662;23.350;2024-03-02T13:03:50;17.85;;;14.68;;
16792;SDS011;8513;42.662;23.350;2024-03-02T13:06:22;17.33;;;14.50;;
16792;SDS011;8513;42.662;23.350;2024-03-02T13:08:48;18.23;;;14.55;;
16792;SDS011;8513;42.662;23.350;2024-03-02T13:11:15;17.10;;;14.73;;
16792;SDS011;8513;42.662;23.350;2024-03-02T13:13:41;19.05;;;15.60;;
16792;SDS011;8513;42.662;23.350;2024-03-02T13:16:08;19.13;;;15.57;;
16792;SDS011;8513;42.662;23.350;2024-03-02T13:18:34;18.90;;;15.93;;
16792;SDS011;8513;42.662;23.350;2024-03-02T13:21:00;17.13;;;14.57;;
16792;SDS011;8513;42.662;23.350;2024-03-02T13:23:25;22.88;;;15.65;;
16792;SDS011;8513;42.662;23.350;2024-03-02T13:25:51;17.65;;;14.98;;
16792;SDS011;8513;42.662;23.350;2024-03-02T13:28:16;18.63;;;15.35;;
16792;SDS011;8513;42.662;23.350;2024-03-02T13:30:42;17.05;;;14.88;;
16792;SDS011;8513;42.662;23.350;2024-03-02T13:33:08;19.55;;;15.88;;
16792;SDS011;8513;42.662;23.350;2024-03-02T13:35:33;16.33;;;14.43;;
16792;SDS011;8513;42.662;23.350;2024-03-02T13:37:58;19.00;;;15.47;;
16792;SDS011;8513;42.662;23.350;2024-03-02T13:40:24;17.73;;;15.48;;
16792;SDS011;8513;42.662;23.350;2024-03-02T13:42:49;19.75;;;15.85;;
16792;SDS011;8513;42.662;23.350;2024-03-02T13:45:17;19.45;;;17.20;;
16792;SDS011;8513;42.662;23.350;2024-03-02T13:47:43;17.07;;;15.27;;
16792;SDS011;8513;42.662;23.350;2024-03-02T13:50:09;16.88;;;14.82;;
16792;SDS011;8513;42.662;23.350;2024-03-02T13:52:34;17.70;;;15.30;;
16792;SDS011;8513;42.662;23.350;2024-03-02T13:55:00;19.55;;;15.73;;
16792;SDS011;8513;42.662;23.350;2024-03-02T13:57:25;18.83;;;15.80;;
16792;SDS011;8513;42.662;23.350;2024-03-02T13:59:50;18.30;;;16.03;;
16792;SDS011;8513;42.662;23.350;2024-03-02T14:02:17;18.67;;;16.15;;
16792;SDS011;8513;42.662;23.350;2024-03-02T14:04:42;19.08;;;16.80;;
16792;SDS011;8513;42.662;23.350;2024-03-02T14:07:08;19.02;;;16.15;;
16792;SDS011;8513;42.662;23.350;2024-03-02T14:09:34;21.63;;;16.85;;
16792;SDS011;8513;42.662;23.350;2024-03-02T14:11:59;21.00;;;17.63;;
16792;SDS011;8513;42.662;23.350;2024-03-02T14:14:27;19.50;;;16.13;;
16792;SDS011;8513;42.662;23.350;2024-03-02T14:16:53;23.38;;;19.02;;
16792;SDS011;8513;42.662;23.350;2024-03-02T14:19:21;20.98;;;18.50;;
16792;SDS011;8513;42.662;23.350;2024-03-02T14:21:47;21.77;;;17.58;;
16792;SDS011;8513;42.662;23.350;2024-03-02T14:24:13;19.38;;;16.63;;
16792;SDS011;8513;42.662;23.350;2024-03-02T14:26:39;20.53;;;18.10;;
16792;SDS011;8513;42.662;23.350;2024-03-02T14:29:04;22.05;;;19.27;;
16792;SDS011;8513;42.662;23.350;2024-03-02T14:31:30;22.02;;;18.88;;